sensor_id;sensor_type;location;lat;lon;timestamp;temperature;humidity
38860;DHT22;24609;48.316;16.174;2023-08-06T00:00:06;15.40;99.90
38860;DHT22;24609;48.316;16.174;2023-08-06T00:02:32;15.40;99.90
38860;DHT22;24609;48.316;16.174;2023-08-06T00:04:58;15.40;99.90
38860;DHT22;24609;48.316;16.174;2023-08-06T00:07:23;15.40;99.90
38860;DHT22;24609;48.316;16.174;2023-08-06T00:09:49;15.40;99.90
38860;DHT22;24609;48.316;16.174;2023-08-06T00:12:14;15.40;99.90
38860;DHT22;24609;48.316;16.174;2023-08-06T00:14:40;15.40;99.90
38860;DHT22;24609;48.316;16.174;2023-08-06T00:17:06;15.40;99.90
38860;DHT22;24609;48.316;16.174;2023-08-06T00:19:32;15.40;99.90
38860;DHT22;24609;48.316;16.174;2023-08-06T00:21:58;15.40;99.90
38860;DHT22;24609;48.316;16.174;2023-08-06T00:24:23;15.40;99.90
38860;DHT22;24609;48.316;16.174;2023-08-06T00:26:49;15.40;99.90
38860;DHT22;24609;48.316;16.174;2023-08-06T00:29:15;15.40;99.90
38860;DHT22;24609;48.316;16.174;2023-08-06T00:31:41;15.40;99.90
38860;DHT22;24609;48.316;16.174;2023-08-06T00:34:06;15.40;99.90
38860;DHT22;24609;48.316;16.174;2023-08-06T00:36:32;15.40;99.90
38860;DHT22;24609;48.316;16.174;2023-08-06T00:38:57;15.40;99.90
38860;DHT22;24609;48.316;16.174;2023-08-06T00:41:23;15.40;99.90
38860;DHT22;24609;48.316;16.174;2023-08-06T00:43:49;15.40;99.90
38860;DHT22;24609;48.316;16.174;2023-08-06T00:46:15;15.40;99.90
38860;DHT22;24609;48.316;16.174;2023-08-06T00:48:41;15.40;99.90
38860;DHT22;24609;48.316;16.174;2023-08-06T00:51:09;15.40;99.90
38860;DHT22;24609;48.316;16.174;2023-08-06T00:53:35;15.40;99.90
38860;DHT22;24609;48.316;16.174;2023-08-06T00:56:02;15.40;99.90
38860;DHT22;24609;48.316;16.174;2023-08-06T00:58:28;15.40;99.90
38860;DHT22;24609;48.316;16.174;2023-08-06T01:00:54;15.40;99.90
38860;DHT22;24609;48.316;16.174;2023-08-06T01:03:19;15.40;99.90
38860;DHT22;24609;48.316;16.174;2023-08-06T01:05:45;15.40;99.90
38860;DHT22;24609;48.316;16.174;2023-08-06T01:13:45;15.30;99.90
38860;DHT22;24609;48.316;16.174;2023-08-06T01:16:20;15.30;99.90
38860;DHT22;24609;48.316;16.174;2023-08-06T01:18:47;15.30;99.90
38860;DHT22;24609;48.316;16.174;2023-08-06T01:21:15;15.30;99.90
38860;DHT22;24609;48.316;16.174;2023-08-06T01:23:42;15.30;99.90
38860;DHT22;24609;48.316;16.174;2023-08-06T01:26:27;15.30;99.90
38860;DHT22;24609;48.316;16.174;2023-08-06T01:29:08;15.20;99.90
38860;DHT22;24609;48.316;16.174;2023-08-06T01:31:39;15.20;99.90
38860;DHT22;24609;48.316;16.174;2023-08-06T01:34:10;15.20;99.90
38860;DHT22;24609;48.316;16.174;2023-08-06T01:36:39;15.20;99.90
38860;DHT22;24609;48.316;16.174;2023-08-06T01:39:05;15.20;99.90
38860;DHT22;24609;48.316;16.174;2023-08-06T01:41:31;15.20;99.90
38860;DHT22;24609;48.316;16.174;2023-08-06T01:43:56;15.20;99.90
38860;DHT22;24609;48.316;16.174;2023-08-06T01:46:22;15.20;99.90
38860;DHT22;24609;48.316;16.174;2023-08-06T01:48:48;15.20;99.90
38860;DHT22;24609;48.316;16.174;2023-08-06T01:51:13;15.20;99.90
38860;DHT22;24609;48.316;16.174;2023-08-06T01:53:39;15.20;99.90
38860;DHT22;24609;48.316;16.174;2023-08-06T01:56:05;15.20;99.90
38860;DHT22;24609;48.316;16.174;2023-08-06T01:58:30;15.20;99.90
38860;DHT22;24609;48.316;16.174;2023-08-06T02:00:56;15.10;99.90
38860;DHT22;24609;48.316;16.174;2023-08-06T02:03:22;15.10;99.90
38860;DHT22;24609;48.316;16.174;2023-08-06T02:05:47;15.10;99.90
38860;DHT22;24609;48.316;16.174;2023-08-06T02:08:13;15.10;99.90
38860;DHT22;24609;48.316;16.174;2023-08-06T02:10:39;15.10;99.90
38860;DHT22;24609;48.316;16.174;2023-08-06T02:13:04;15.10;99.90
38860;DHT22;24609;48.316;16.174;2023-08-06T02:15:30;15.10;99.90
38860;DHT22;24609;48.316;16.174;2023-08-06T02:17:56;15.10;99.90
38860;DHT22;24609;48.316;16.174;2023-08-06T02:20:21;15.10;99.90
38860;DHT22;24609;48.316;16.174;2023-08-06T02:22:47;15.10;99.90
38860;DHT22;24609;48.316;16.174;2023-08-06T02:25:13;15.10;99.90
38860;DHT22;24609;48.316;16.174;2023-08-06T02:27:38;15.10;99.90
38860;DHT22;24609;48.316;16.174;2023-08-06T02:30:05;15.10;99.90
38860;DHT22;24609;48.316;16.174;2023-08-06T02:32:31;15.10;99.90
38860;DHT22;24609;48.316;16.174;2023-08-06T02:34:57;15.10;99.90
38860;DHT22;24609;48.316;16.174;2023-08-06T02:37:23;15.10;99.90
38860;DHT22;24609;48.316;16.174;2023-08-06T02:39:49;15.10;99.90
38860;DHT22;24609;48.316;16.174;2023-08-06T02:42:14;15.10;99.90
38860;DHT22;24609;48.316;16.174;2023-08-06T02:44:40;15.10;99.90
38860;DHT22;24609;48.316;16.174;2023-08-06T02:47:06;15.20;99.90
38860;DHT22;24609;48.316;16.174;2023-08-06T02:49:31;15.20;99.90
38860;DHT22;24609;48.316;16.174;2023-08-06T02:51:57;15.20;99.90
38860;DHT22;24609;48.316;16.174;2023-08-06T02:54:23;15.20;99.90
38860;DHT22;24609;48.316;16.174;2023-08-06T02:56:49;15.20;99.90
38860;DHT22;24609;48.316;16.174;2023-08-06T02:59:15;15.20;99.90
38860;DHT22;24609;48.316;16.174;2023-08-06T03:01:41;15.20;99.90
38860;DHT22;24609;48.316;16.174;2023-08-06T03:04:07;15.20;99.90
38860;DHT22;24609;48.316;16.174;2023-08-06T03:06:32;15.20;99.90
38860;DHT22;24609;48.316;16.174;2023-08-06T03:08:58;15.20;99.90
38860;DHT22;24609;48.316;16.174;2023-08-06T03:11:24;15.20;99.90
38860;DHT22;24609;48.316;16.174;2023-08-06T03:13:49;15.20;99.90
38860;DHT22;24609;48.316;16.174;2023-08-06T03:16:15;15.20;99.90
38860;DHT22;24609;48.316;16.174;2023-08-06T03:18:41;15.20;99.90
38860;DHT22;24609;48.316;16.174;2023-08-06T03:21:06;15.20;99.90
38860;DHT22;24609;48.316;16.174;2023-08-06T03:23:32;15.20;99.90
38860;DHT22;24609;48.316;16.174;2023-08-06T03:26:02;15.20;99.90
38860;DHT22;24609;48.316;16.174;2023-08-06T03:28:28;15.20;99.90
38860;DHT22;24609;48.316;16.174;2023-08-06T03:31:03;15.20;99.90
38860;DHT22;24609;48.316;16.174;2023-08-06T03:33:29;15.20;99.90
38860;DHT22;24609;48.316;16.174;2023-08-06T03:35:55;15.20;99.90
38860;DHT22;24609;48.316;16.174;2023-08-06T03:38:20;15.20;99.90
38860;DHT22;24609;48.316;16.174;2023-08-06T03:40:46;15.20;99.90
38860;DHT22;24609;48.316;16.174;2023-08-06T03:43:12;15.20;99.90
38860;DHT22;24609;48.316;16.174;2023-08-06T03:45:38;15.30;99.90
38860;DHT22;24609;48.316;16.174;2023-08-06T03:48:04;15.30;99.90
38860;DHT22;24609;48.316;16.174;2023-08-06T03:50:29;15.30;99.90
38860;DHT22;24609;48.316;16.174;2023-08-06T03:52:55;15.30;99.90
38860;DHT22;24609;48.316;16.174;2023-08-06T03:55:21;15.30;99.90
38860;DHT22;24609;48.316;16.174;2023-08-06T03:57:47;15.30;99.90
38860;DHT22;24609;48.316;16.174;2023-08-06T04:00:13;15.30;99.90
38860;DHT22;24609;48.316;16.174;2023-08-06T04:02:39;15.30;99.90
38860;DHT22;24609;48.316;16.174;2023-08-06T04:05:05;15.30;99.90
38860;DHT22;24609;48.316;16.174;2023-08-06T04:07:30;15.30;99.90
38860;DHT22;24609;48.316;16.174;2023-08-06T04:10:01;15.30;99.90
38860;DHT22;24609;48.316;16.174;2023-08-06T04:12:27;15.30;99.90
38860;DHT22;24609;48.316;16.174;2023-08-06T04:14:53;15.30;99.90
38860;DHT22;24609;48.316;16.174;2023-08-06T04:17:20;15.30;99.90
38860;DHT22;24609;48.316;16.174;2023-08-06T04:19:50;15.30;99.90
38860;DHT22;24609;48.316;16.174;2023-08-06T04:22:17;15.30;99.90
38860;DHT22;24609;48.316;16.174;2023-08-06T04:24:43;15.40;99.90
38860;DHT22;24609;48.316;16.174;2023-08-06T04:27:12;15.40;99.90
38860;DHT22;24609;48.316;16.174;2023-08-06T04:29:38;15.40;99.90
38860;DHT22;24609;48.316;16.174;2023-08-06T04:32:06;15.40;99.90
38860;DHT22;24609;48.316;16.174;2023-08-06T04:34:33;15.40;99.90
38860;DHT22;24609;48.316;16.174;2023-08-06T04:36:59;15.40;99.90
38860;DHT22;24609;48.316;16.174;2023-08-06T04:39:25;15.40;99.90
38860;DHT22;24609;48.316;16.174;2023-08-06T04:41:51;15.40;99.90
38860;DHT22;24609;48.316;16.174;2023-08-06T04:44:16;15.50;99.90
38860;DHT22;24609;48.316;16.174;2023-08-06T04:46:42;15.50;99.90
38860;DHT22;24609;48.316;16.174;2023-08-06T04:49:08;15.50;99.90
38860;DHT22;24609;48.316;16.174;2023-08-06T04:51:34;15.50;99.90
38860;DHT22;24609;48.316;16.174;2023-08-06T04:53:59;15.50;99.90
38860;DHT22;24609;48.316;16.174;2023-08-06T04:56:25;15.50;99.90
38860;DHT22;24609;48.316;16.174;2023-08-06T04:58:51;15.50;99.90
38860;DHT22;24609;48.316;16.174;2023-08-06T05:01:17;15.50;99.90
38860;DHT22;24609;48.316;16.174;2023-08-06T05:03:42;15.50;99.90
38860;DHT22;24609;48.316;16.174;2023-08-06T05:06:08;15.60;99.90
38860;DHT22;24609;48.316;16.174;2023-08-06T05:08:34;15.60;99.90
38860;DHT22;24609;48.316;16.174;2023-08-06T05:10:59;15.70;99.90
38860;DHT22;24609;48.316;16.174;2023-08-06T05:13:25;15.70;99.90
38860;DHT22;24609;48.316;16.174;2023-08-06T05:15:53;15.80;99.90
38860;DHT22;24609;48.316;16.174;2023-08-06T05:18:19;15.80;99.90
38860;DHT22;24609;48.316;16.174;2023-08-06T05:20:45;15.80;99.90
38860;DHT22;24609;48.316;16.174;2023-08-06T05:23:11;15.80;99.90
38860;DHT22;24609;48.316;16.174;2023-08-06T05:25:40;15.80;99.90
38860;DHT22;24609;48.316;16.174;2023-08-06T05:28:06;15.80;99.90
38860;DHT22;24609;48.316;16.174;2023-08-06T05:30:32;15.80;99.90
38860;DHT22;24609;48.316;16.174;2023-08-06T05:32:58;15.80;99.90
38860;DHT22;24609;48.316;16.174;2023-08-06T05:35:23;15.80;99.90
38860;DHT22;24609;48.316;16.174;2023-08-06T05:37:52;15.90;99.90
38860;DHT22;24609;48.316;16.174;2023-08-06T05:40:18;15.90;99.90
38860;DHT22;24609;48.316;16.174;2023-08-06T05:42:44;16.00;99.90
38860;DHT22;24609;48.316;16.174;2023-08-06T05:45:09;16.00;99.90
38860;DHT22;24609;48.316;16.174;2023-08-06T05:47:35;16.10;99.90
38860;DHT22;24609;48.316;16.174;2023-08-06T05:50:01;16.10;99.90
38860;DHT22;24609;48.316;16.174;2023-08-06T05:52:27;16.10;99.90
38860;DHT22;24609;48.316;16.174;2023-08-06T05:54:52;16.10;99.90
38860;DHT22;24609;48.316;16.174;2023-08-06T05:57:18;16.10;99.90
38860;DHT22;24609;48.316;16.174;2023-08-06T05:59:44;16.10;99.90
38860;DHT22;24609;48.316;16.174;2023-08-06T06:02:09;16.10;99.90
38860;DHT22;24609;48.316;16.174;2023-08-06T06:04:36;16.20;99.90
38860;DHT22;24609;48.316;16.174;2023-08-06T06:07:02;16.20;99.90
38860;DHT22;24609;48.316;16.174;2023-08-06T06:09:28;16.30;99.90
38860;DHT22;24609;48.316;16.174;2023-08-06T06:11:53;16.30;99.90
38860;DHT22;24609;48.316;16.174;2023-08-06T06:14:19;16.30;99.90
38860;DHT22;24609;48.316;16.174;2023-08-06T06:16:45;16.50;99.90
38860;DHT22;24609;48.316;16.174;2023-08-06T06:19:11;16.60;99.90
38860;DHT22;24609;48.316;16.174;2023-08-06T06:21:37;16.50;99.90
38860;DHT22;24609;48.316;16.174;2023-08-06T06:24:04;16.70;99.90
38860;DHT22;24609;48.316;16.174;2023-08-06T06:26:31;16.90;99.90
38860;DHT22;24609;48.316;16.174;2023-08-06T06:28:57;17.00;99.90
38860;DHT22;24609;48.316;16.174;2023-08-06T06:31:23;17.10;99.90
38860;DHT22;24609;48.316;16.174;2023-08-06T06:33:48;17.10;99.90
38860;DHT22;24609;48.316;16.174;2023-08-06T06:36:14;17.10;99.90
38860;DHT22;24609;48.316;16.174;2023-08-06T06:38:40;17.20;99.90
38860;DHT22;24609;48.316;16.174;2023-08-06T06:41:05;17.30;99.90
38860;DHT22;24609;48.316;16.174;2023-08-06T06:43:31;17.40;99.90
38860;DHT22;24609;48.316;16.174;2023-08-06T06:45:57;17.30;99.90
38860;DHT22;24609;48.316;16.174;2023-08-06T06:48:27;17.20;99.90
38860;DHT22;24609;48.316;16.174;2023-08-06T06:50:53;17.30;99.90
38860;DHT22;24609;48.316;16.174;2023-08-06T06:53:19;17.30;99.90
38860;DHT22;24609;48.316;16.174;2023-08-06T06:55:44;17.20;99.90
38860;DHT22;24609;48.316;16.174;2023-08-06T06:58:10;17.40;99.90
38860;DHT22;24609;48.316;16.174;2023-08-06T07:00:38;17.50;99.90
38860;DHT22;24609;48.316;16.174;2023-08-06T07:03:04;17.50;99.90
38860;DHT22;24609;48.316;16.174;2023-08-06T07:05:30;17.40;99.90
38860;DHT22;24609;48.316;16.174;2023-08-06T07:07:55;17.30;99.90
38860;DHT22;24609;48.316;16.174;2023-08-06T07:10:21;17.40;99.90
38860;DHT22;24609;48.316;16.174;2023-08-06T07:12:47;17.30;99.90
38860;DHT22;24609;48.316;16.174;2023-08-06T07:15:13;17.40;99.90
38860;DHT22;24609;48.316;16.174;2023-08-06T07:17:38;17.60;99.90
38860;DHT22;24609;48.316;16.174;2023-08-06T07:20:05;17.50;99.90
38860;DHT22;24609;48.316;16.174;2023-08-06T07:22:31;17.50;99.90
38860;DHT22;24609;48.316;16.174;2023-08-06T07:24:57;17.70;99.90
38860;DHT22;24609;48.316;16.174;2023-08-06T07:27:23;17.70;99.90
38860;DHT22;24609;48.316;16.174;2023-08-06T07:29:49;17.60;99.90
38860;DHT22;24609;48.316;16.174;2023-08-06T07:32:15;17.60;99.90
38860;DHT22;24609;48.316;16.174;2023-08-06T07:34:41;17.60;99.90
38860;DHT22;24609;48.316;16.174;2023-08-06T07:37:07;17.60;99.90
38860;DHT22;24609;48.316;16.174;2023-08-06T07:39:32;17.60;99.90
38860;DHT22;24609;48.316;16.174;2023-08-06T07:41:58;17.70;99.90
38860;DHT22;24609;48.316;16.174;2023-08-06T07:44:24;17.70;99.90
38860;DHT22;24609;48.316;16.174;2023-08-06T07:46:50;17.80;99.90
38860;DHT22;24609;48.316;16.174;2023-08-06T07:49:15;17.90;99.90
38860;DHT22;24609;48.316;16.174;2023-08-06T07:51:41;17.80;99.90
38860;DHT22;24609;48.316;16.174;2023-08-06T07:54:07;17.70;99.90
38860;DHT22;24609;48.316;16.174;2023-08-06T07:56:33;17.80;99.90
38860;DHT22;24609;48.316;16.174;2023-08-06T07:58:58;17.70;99.90
38860;DHT22;24609;48.316;16.174;2023-08-06T08:01:24;17.70;99.90
38860;DHT22;24609;48.316;16.174;2023-08-06T08:03:50;17.60;99.90
38860;DHT22;24609;48.316;16.174;2023-08-06T08:06:15;17.50;99.90
38860;DHT22;24609;48.316;16.174;2023-08-06T08:08:41;17.40;99.90
38860;DHT22;24609;48.316;16.174;2023-08-06T08:11:07;17.30;99.90
38860;DHT22;24609;48.316;16.174;2023-08-06T08:13:33;17.20;99.90
38860;DHT22;24609;48.316;16.174;2023-08-06T08:15:59;17.30;99.90
38860;DHT22;24609;48.316;16.174;2023-08-06T08:18:25;17.30;99.90
38860;DHT22;24609;48.316;16.174;2023-08-06T08:20:51;17.20;99.90
38860;DHT22;24609;48.316;16.174;2023-08-06T08:23:17;17.30;99.90
38860;DHT22;24609;48.316;16.174;2023-08-06T08:25:42;17.30;99.90
38860;DHT22;24609;48.316;16.174;2023-08-06T08:28:08;17.30;99.90
38860;DHT22;24609;48.316;16.174;2023-08-06T08:30:34;17.30;99.90
38860;DHT22;24609;48.316;16.174;2023-08-06T08:32:59;17.40;99.90
38860;DHT22;24609;48.316;16.174;2023-08-06T08:35:25;17.80;99.90
38860;DHT22;24609;48.316;16.174;2023-08-06T08:37:51;18.30;99.90
38860;DHT22;24609;48.316;16.174;2023-08-06T08:40:17;18.70;74.90
38860;DHT22;24609;48.316;16.174;2023-08-06T08:42:43;18.50;99.90
38860;DHT22;24609;48.316;16.174;2023-08-06T08:45:14;18.20;99.90
38860;DHT22;24609;48.316;16.174;2023-08-06T08:47:43;17.70;99.90
38860;DHT22;24609;48.316;16.174;2023-08-06T08:50:09;17.70;99.90
38860;DHT22;24609;48.316;16.174;2023-08-06T08:52:38;17.50;99.90
38860;DHT22;24609;48.316;16.174;2023-08-06T08:55:07;17.40;99.90
38860;DHT22;24609;48.316;16.174;2023-08-06T08:57:32;17.50;99.90
38860;DHT22;24609;48.316;16.174;2023-08-06T08:59:58;17.40;99.90
38860;DHT22;24609;48.316;16.174;2023-08-06T09:02:26;17.30;99.90
38860;DHT22;24609;48.316;16.174;2023-08-06T09:04:55;17.20;99.90
38860;DHT22;24609;48.316;16.174;2023-08-06T09:07:22;17.20;99.90
38860;DHT22;24609;48.316;16.174;2023-08-06T09:09:49;17.10;99.90
38860;DHT22;24609;48.316;16.174;2023-08-06T09:12:16;17.10;99.90
38860;DHT22;24609;48.316;16.174;2023-08-06T09:14:43;17.00;99.90
38860;DHT22;24609;48.316;16.174;2023-08-06T09:17:09;17.00;99.90
38860;DHT22;24609;48.316;16.174;2023-08-06T09:19:36;16.90;99.90
38860;DHT22;24609;48.316;16.174;2023-08-06T09:22:02;16.90;99.90
38860;DHT22;24609;48.316;16.174;2023-08-06T09:24:28;16.80;99.90
38860;DHT22;24609;48.316;16.174;2023-08-06T09:26:54;16.90;99.90
38860;DHT22;24609;48.316;16.174;2023-08-06T09:29:20;16.90;99.90
38860;DHT22;24609;48.316;16.174;2023-08-06T09:31:48;16.90;99.90
38860;DHT22;24609;48.316;16.174;2023-08-06T09:34:21;16.90;99.90
38860;DHT22;24609;48.316;16.174;2023-08-06T09:36:49;17.00;99.90
38860;DHT22;24609;48.316;16.174;2023-08-06T09:39:21;17.00;99.90
38860;DHT22;24609;48.316;16.174;2023-08-06T09:41:47;17.20;99.90
38860;DHT22;24609;48.316;16.174;2023-08-06T09:44:21;17.20;99.90
38860;DHT22;24609;48.316;16.174;2023-08-06T09:46:49;17.20;99.90
38860;DHT22;24609;48.316;16.174;2023-08-06T09:49:17;17.30;99.90
38860;DHT22;24609;48.316;16.174;2023-08-06T09:51:44;17.30;99.90
38860;DHT22;24609;48.316;16.174;2023-08-06T09:54:12;17.60;99.90
38860;DHT22;24609;48.316;16.174;2023-08-06T09:56:38;17.70;99.90
38860;DHT22;24609;48.316;16.174;2023-08-06T09:59:07;17.70;88.60
38860;DHT22;24609;48.316;16.174;2023-08-06T10:01:33;17.80;5.90
38860;DHT22;24609;48.316;16.174;2023-08-06T10:04:01;17.80;1.00
38860;DHT22;24609;48.316;16.174;2023-08-06T10:06:28;17.80;1.00
38860;DHT22;24609;48.316;16.174;2023-08-06T10:08:54;17.80;1.00
38860;DHT22;24609;48.316;16.174;2023-08-06T10:11:22;17.90;1.00
38860;DHT22;24609;48.316;16.174;2023-08-06T10:13:50;18.00;1.00
38860;DHT22;24609;48.316;16.174;2023-08-06T10:16:18;18.20;99.90
38860;DHT22;24609;48.316;16.174;2023-08-06T10:18:44;18.30;99.90
38860;DHT22;24609;48.316;16.174;2023-08-06T10:21:10;18.40;99.90
38860;DHT22;24609;48.316;16.174;2023-08-06T10:23:36;18.40;99.90
38860;DHT22;24609;48.316;16.174;2023-08-06T10:26:05;18.40;99.90
38860;DHT22;24609;48.316;16.174;2023-08-06T10:28:38;18.50;99.90
38860;DHT22;24609;48.316;16.174;2023-08-06T10:31:04;18.40;99.90
38860;DHT22;24609;48.316;16.174;2023-08-06T10:33:46;18.60;99.90
38860;DHT22;24609;48.316;16.174;2023-08-06T10:36:13;18.80;99.90
38860;DHT22;24609;48.316;16.174;2023-08-06T10:38:50;18.70;99.90
38860;DHT22;24609;48.316;16.174;2023-08-06T10:41:23;18.60;99.90
38860;DHT22;24609;48.316;16.174;2023-08-06T10:43:49;18.40;1.00
38860;DHT22;24609;48.316;16.174;2023-08-06T10:46:31;18.30;1.00
38860;DHT22;24609;48.316;16.174;2023-08-06T10:48:57;18.20;99.90
38860;DHT22;24609;48.316;16.174;2023-08-06T10:51:22;18.40;99.90
38860;DHT22;24609;48.316;16.174;2023-08-06T10:53:49;18.40;23.00
38860;DHT22;24609;48.316;16.174;2023-08-06T10:56:23;18.70;20.60
38860;DHT22;24609;48.316;16.174;2023-08-06T10:58:50;19.00;1.00
38860;DHT22;24609;48.316;16.174;2023-08-06T11:01:16;19.20;24.60
38860;DHT22;24609;48.316;16.174;2023-08-06T11:03:43;18.90;99.90
38860;DHT22;24609;48.316;16.174;2023-08-06T11:06:10;18.90;99.90
38860;DHT22;24609;48.316;16.174;2023-08-06T11:08:40;19.20;99.90
38860;DHT22;24609;48.316;16.174;2023-08-06T11:11:13;18.90;99.90
38860;DHT22;24609;48.316;16.174;2023-08-06T11:13:44;18.70;99.90
38860;DHT22;24609;48.316;16.174;2023-08-06T11:16:15;18.80;99.90
38860;DHT22;24609;48.316;16.174;2023-08-06T11:18:41;19.10;99.90
38860;DHT22;24609;48.316;16.174;2023-08-06T11:21:08;19.40;99.90
38860;DHT22;24609;48.316;16.174;2023-08-06T11:23:34;19.40;99.90
38860;DHT22;24609;48.316;16.174;2023-08-06T11:26:00;19.30;99.90
38860;DHT22;24609;48.316;16.174;2023-08-06T11:28:26;19.40;99.90
38860;DHT22;24609;48.316;16.174;2023-08-06T11:30:53;19.30;99.90
38860;DHT22;24609;48.316;16.174;2023-08-06T11:33:24;19.30;99.90
38860;DHT22;24609;48.316;16.174;2023-08-06T11:35:55;19.40;41.20
38860;DHT22;24609;48.316;16.174;2023-08-06T11:38:21;18.90;99.90
38860;DHT22;24609;48.316;16.174;2023-08-06T11:40:47;18.30;99.90
38860;DHT22;24609;48.316;16.174;2023-08-06T11:43:14;18.20;99.90
38860;DHT22;24609;48.316;16.174;2023-08-06T11:45:40;18.00;99.90
38860;DHT22;24609;48.316;16.174;2023-08-06T11:48:07;18.10;99.90
38860;DHT22;24609;48.316;16.174;2023-08-06T11:50:37;18.20;99.90
38860;DHT22;24609;48.316;16.174;2023-08-06T11:53:04;18.20;99.90
38860;DHT22;24609;48.316;16.174;2023-08-06T11:55:30;18.10;99.90
38860;DHT22;24609;48.316;16.174;2023-08-06T11:57:57;17.90;99.90
38860;DHT22;24609;48.316;16.174;2023-08-06T12:00:24;17.70;99.90
38860;DHT22;24609;48.316;16.174;2023-08-06T12:02:51;17.70;99.90
38860;DHT22;24609;48.316;16.174;2023-08-06T12:05:28;17.80;99.90
38860;DHT22;24609;48.316;16.174;2023-08-06T12:07:59;17.70;99.90
38860;DHT22;24609;48.316;16.174;2023-08-06T12:10:26;17.80;99.90
38860;DHT22;24609;48.316;16.174;2023-08-06T12:12:53;17.90;99.90
38860;DHT22;24609;48.316;16.174;2023-08-06T12:15:19;17.90;99.90
38860;DHT22;24609;48.316;16.174;2023-08-06T12:17:44;18.20;99.90
38860;DHT22;24609;48.316;16.174;2023-08-06T12:20:10;18.10;99.90
38860;DHT22;24609;48.316;16.174;2023-08-06T12:22:37;18.00;99.90
38860;DHT22;24609;48.316;16.174;2023-08-06T12:25:06;18.20;99.90
38860;DHT22;24609;48.316;16.174;2023-08-06T12:27:37;18.30;99.90
38860;DHT22;24609;48.316;16.174;2023-08-06T12:30:04;18.30;99.90
38860;DHT22;24609;48.316;16.174;2023-08-06T12:32:30;18.40;99.90
38860;DHT22;24609;48.316;16.174;2023-08-06T12:34:56;18.40;99.90
38860;DHT22;24609;48.316;16.174;2023-08-06T12:37:22;18.50;99.90
38860;DHT22;24609;48.316;16.174;2023-08-06T12:39:48;18.70;99.90
38860;DHT22;24609;48.316;16.174;2023-08-06T12:42:14;19.00;99.90
38860;DHT22;24609;48.316;16.174;2023-08-06T12:44:39;18.90;99.90
38860;DHT22;24609;48.316;16.174;2023-08-06T12:47:06;18.80;99.90
38860;DHT22;24609;48.316;16.174;2023-08-06T12:49:32;19.00;99.90
38860;DHT22;24609;48.316;16.174;2023-08-06T12:51:58;19.20;99.90
38860;DHT22;24609;48.316;16.174;2023-08-06T12:54:28;19.30;99.90
38860;DHT22;24609;48.316;16.174;2023-08-06T12:56:54;19.40;99.90
38860;DHT22;24609;48.316;16.174;2023-08-06T12:59:20;19.50;99.90
38860;DHT22;24609;48.316;16.174;2023-08-06T13:01:45;19.60;91.70
38860;DHT22;24609;48.316;16.174;2023-08-06T13:04:11;19.30;99.90
38860;DHT22;24609;48.316;16.174;2023-08-06T13:06:37;19.50;99.90
38860;DHT22;24609;48.316;16.174;2023-08-06T13:09:05;19.40;4.70
38860;DHT22;24609;48.316;16.174;2023-08-06T13:11:32;19.80;59.20
38860;DHT22;24609;48.316;16.174;2023-08-06T13:14:09;20.00;1.00
38860;DHT22;24609;48.316;16.174;2023-08-06T13:16:36;20.10;1.00
38860;DHT22;24609;48.316;16.174;2023-08-06T13:19:02;20.30;1.00
38860;DHT22;24609;48.316;16.174;2023-08-06T13:21:33;20.20;1.00
38860;DHT22;24609;48.316;16.174;2023-08-06T13:24:00;20.30;1.00
38860;DHT22;24609;48.316;16.174;2023-08-06T13:26:27;20.40;1.00
38860;DHT22;24609;48.316;16.174;2023-08-06T13:28:53;20.30;1.00
38860;DHT22;24609;48.316;16.174;2023-08-06T13:31:18;20.80;1.00
38860;DHT22;24609;48.316;16.174;2023-08-06T13:33:44;21.30;1.00
38860;DHT22;24609;48.316;16.174;2023-08-06T13:36:09;21.40;1.00
38860;DHT22;24609;48.316;16.174;2023-08-06T13:38:35;21.60;99.90
38860;DHT22;24609;48.316;16.174;2023-08-06T13:41:01;22.10;99.90
38860;DHT22;24609;48.316;16.174;2023-08-06T13:43:27;22.30;99.90
38860;DHT22;24609;48.316;16.174;2023-08-06T13:45:53;22.70;99.90
38860;DHT22;24609;48.316;16.174;2023-08-06T13:48:19;22.80;99.90
38860;DHT22;24609;48.316;16.174;2023-08-06T13:50:44;22.80;99.90
38860;DHT22;24609;48.316;16.174;2023-08-06T13:53:10;22.90;99.90
38860;DHT22;24609;48.316;16.174;2023-08-06T13:55:36;23.20;99.90
38860;DHT22;24609;48.316;16.174;2023-08-06T13:58:01;23.20;99.90
38860;DHT22;24609;48.316;16.174;2023-08-06T14:00:28;23.30;99.90
38860;DHT22;24609;48.316;16.174;2023-08-06T14:02:53;23.40;99.90
38860;DHT22;24609;48.316;16.174;2023-08-06T14:05:20;23.00;99.90
38860;DHT22;24609;48.316;16.174;2023-08-06T14:07:46;22.40;99.90
38860;DHT22;24609;48.316;16.174;2023-08-06T14:10:12;21.90;99.90
38860;DHT22;24609;48.316;16.174;2023-08-06T14:12:37;21.70;99.90
38860;DHT22;24609;48.316;16.174;2023-08-06T14:15:03;21.80;99.90
38860;DHT22;24609;48.316;16.174;2023-08-06T14:17:29;21.80;99.90
38860;DHT22;24609;48.316;16.174;2023-08-06T14:19:55;21.80;99.90
38860;DHT22;24609;48.316;16.174;2023-08-06T14:22:22;21.00;99.90
38860;DHT22;24609;48.316;16.174;2023-08-06T14:24:47;20.30;99.90
38860;DHT22;24609;48.316;16.174;2023-08-06T14:27:13;20.00;99.90
38860;DHT22;24609;48.316;16.174;2023-08-06T14:29:39;19.30;99.90
38860;DHT22;24609;48.316;16.174;2023-08-06T14:32:05;18.70;99.90
38860;DHT22;24609;48.316;16.174;2023-08-06T14:34:31;17.70;99.90
38860;DHT22;24609;48.316;16.174;2023-08-06T14:36:56;16.80;99.90
38860;DHT22;24609;48.316;16.174;2023-08-06T14:39:22;16.60;99.90
38860;DHT22;24609;48.316;16.174;2023-08-06T14:41:48;16.50;99.90
38860;DHT22;24609;48.316;16.174;2023-08-06T14:44:14;16.60;99.90
38860;DHT22;24609;48.316;16.174;2023-08-06T14:46:39;16.80;99.90
38860;DHT22;24609;48.316;16.174;2023-08-06T14:49:05;17.00;99.90
38860;DHT22;24609;48.316;16.174;2023-08-06T14:51:30;17.00;99.90
38860;DHT22;24609;48.316;16.174;2023-08-06T14:53:56;17.20;99.90
38860;DHT22;24609;48.316;16.174;2023-08-06T14:56:22;17.30;99.90
38860;DHT22;24609;48.316;16.174;2023-08-06T14:58:48;17.30;99.90
38860;DHT22;24609;48.316;16.174;2023-08-06T15:01:14;17.50;99.90
38860;DHT22;24609;48.316;16.174;2023-08-06T15:03:39;17.50;99.90
38860;DHT22;24609;48.316;16.174;2023-08-06T15:06:05;17.50;99.90
38860;DHT22;24609;48.316;16.174;2023-08-06T15:08:31;17.50;99.90
38860;DHT22;24609;48.316;16.174;2023-08-06T15:10:56;17.60;99.90
38860;DHT22;24609;48.316;16.174;2023-08-06T15:13:22;17.60;99.90
38860;DHT22;24609;48.316;16.174;2023-08-06T15:15:49;17.80;99.90
38860;DHT22;24609;48.316;16.174;2023-08-06T15:18:15;17.90;99.90